createdAt,value
2019-04-21T00:02:30.780Z,95642.68
2019-04-21T00:05:18.790Z,95638.25
2019-04-21T00:07:43.477Z,95632.72
2019-04-21T00:10:18.415Z,95633.86
2019-04-21T00:12:49.265Z,95633.95
2019-04-21T00:15:16.041Z,95633.28
2019-04-21T00:17:35.064Z,95634.79
2019-04-21T00:20:18.697Z,95634.15
2019-04-21T00:22:51.996Z,95630.77
2019-04-21T00:25:23.559Z,95631.69
2019-04-21T00:28:02.928Z,95631.28
2019-04-21T00:30:34.237Z,95626.06
2019-04-21T00:32:54.096Z,95626.45
2019-04-21T00:35:19.601Z,95620.52
2019-04-21T00:38:08.275Z,95622.91
2019-04-21T00:40:43.242Z,95623.27
2019-04-21T00:43:04.267Z,95619.68
2019-04-21T00:45:31.565Z,95620.73
2019-04-21T00:48:09.915Z,95617.44
2019-04-21T00:50:51.717Z,95616.69
2019-04-21T00:53:24.185Z,95625.75
2019-04-21T00:55:59.053Z,95618.56
2019-04-21T00:58:28.006Z,95620.57
2019-04-21T01:00:59.785Z,95610.09
2019-04-21T01:03:26.674Z,95616.34
2019-04-21T01:05:56.175Z,95616.43
2019-04-21T01:08:30.245Z,95614.55
2019-04-21T01:10:49.956Z,95618.50
2019-04-21T01:13:36.273Z,95614.84
2019-04-21T01:16:03.319Z,95610.94
2019-04-21T01:18:32.651Z,95607.30
2019-04-21T01:20:39.443Z,95606.19
2019-04-21T01:23:08.981Z,95609.09
2019-04-21T01:25:44.989Z,95606.27
2019-04-21T01:28:27.466Z,95606.19
2019-04-21T01:30:58.242Z,95608.09
2019-04-21T01:33:34.917Z,95597.45
2019-04-21T01:35:58.335Z,95605.05
2019-04-21T01:38:34.306Z,95605.70
2019-04-21T01:41:07.096Z,95607.86
2019-04-21T01:43:38.371Z,95607.28
2019-04-21T01:46:06.659Z,95609.54
2019-04-21T01:48:30.675Z,95608.46
2019-04-21T01:51:04.370Z,95604.38
2019-04-21T01:53:42.463Z,95603.91
2019-04-21T01:56:30.282Z,95603.46
2019-04-21T01:58:53.226Z,95603.70
2019-04-21T02:01:34.593Z,95598.16
2019-04-21T02:04:02.775Z,95594.15
2019-04-21T02:06:36.204Z,95588.85
2019-04-21T02:09:03.378Z,95589.00
2019-04-21T02:11:35.493Z,95591.56
2019-04-21T02:14:23.002Z,95591.20
2019-04-21T02:16:36.070Z,95588.28
2019-04-21T02:19:04.460Z,95583.41
2019-04-21T02:21:31.814Z,95579.56
2019-04-21T02:24:14.847Z,95567.66
2019-04-21T02:26:41.527Z,95568.90
2019-04-21T02:29:15.409Z,95573.66
2019-04-21T02:34:16.964Z,95565.17
2019-04-21T02:39:21.134Z,95555.63
2019-04-21T02:46:50.420Z,95546.02
2019-04-21T02:49:35.485Z,95546.81
2019-04-21T02:57:01.274Z,95544.09
2019-04-21T03:02:17.124Z,95551.02
2019-04-21T03:04:34.799Z,95537.80
2019-04-21T03:07:14.975Z,95539.91
2019-04-21T03:09:39.454Z,95545.11
2019-04-21T03:12:16.816Z,95543.30
2019-04-21T03:17:14.274Z,95533.53
2019-04-21T03:20:19.139Z,95531.02
2019-04-21T03:25:23.515Z,95525.03
2019-04-21T03:35:14.928Z,95511.59
2019-04-21T03:37:25.622Z,95511.36
2019-04-21T03:39:56.841Z,95508.70
2019-04-21T03:42:25.612Z,95508.78
2019-04-21T03:44:56.906Z,95506.98
2019-04-21T03:47:23.540Z,95510.75
2019-04-21T03:49:54.561Z,95513.94
2019-04-21T03:52:32.415Z,95506.36
2019-04-21T04:08:31.876Z,95495.57
2019-04-21T04:11:02.741Z,95493.30
2019-04-21T04:13:34.193Z,95487.80
2019-04-21T04:16:02.079Z,95495.48
2019-04-21T04:18:41.143Z,95485.00
2019-04-21T04:21:04.473Z,95477.82
2019-04-21T04:23:35.303Z,95486.91
2019-04-21T04:25:58.928Z,95488.83
2019-04-21T04:28:40.274Z,95485.46
2019-04-21T04:31:06.499Z,95482.76
2019-04-21T04:33:43.666Z,95488.39
2019-04-21T04:36:10.603Z,95493.97
2019-04-21T04:38:41.555Z,95493.97
2019-04-21T04:41:19.828Z,95490.52
2019-04-21T04:43:57.286Z,95488.82
2019-04-21T04:48:34.938Z,95495.07
2019-04-21T04:51:17.063Z,95495.97
2019-04-21T04:56:10.866Z,95507.31
2019-04-21T04:59:15.948Z,95497.50
2019-04-21T05:14:03.313Z,95503.14
2019-04-21T05:23:49.827Z,95508.86
2019-04-21T05:26:14.681Z,95506.53
2019-04-21T05:28:44.891Z,95499.41
2019-04-21T05:31:25.385Z,95503.66
2019-04-21T05:33:59.092Z,95507.95
2019-04-21T05:36:45.925Z,95514.84
2019-04-21T05:39:14.687Z,95509.80
2019-04-21T05:41:38.588Z,95508.12
2019-04-21T05:44:28.019Z,95510.55
2019-04-21T05:47:03.771Z,95510.55
2019-04-21T05:49:29.363Z,95515.00
2019-04-21T05:51:59.794Z,95512.22
2019-04-21T05:57:05.987Z,95509.83
2019-04-21T05:59:40.422Z,95508.91
2019-04-21T06:02:19.121Z,95507.70
2019-04-21T06:05:12.482Z,95518.90
2019-04-21T06:07:18.971Z,95516.56
2019-04-21T06:09:51.364Z,95520.14
2019-04-21T06:12:13.481Z,95523.64
2019-04-21T06:14:48.530Z,95523.96
2019-04-21T06:19:49.418Z,95520.55
2019-04-21T06:22:17.788Z,95519.67
2019-04-21T06:25:13.426Z,95514.43
2019-04-21T06:27:22.891Z,95523.95
2019-04-21T06:29:50.217Z,95516.27
2019-04-21T06:32:30.432Z,95513.88
2019-04-21T06:40:15.270Z,95515.60
2019-04-21T06:42:31.478Z,95510.44
2019-04-21T06:45:07.211Z,95499.10
2019-04-21T06:47:45.259Z,95499.86
2019-04-21T06:50:00.416Z,95500.61
2019-04-21T06:52:49.991Z,95493.66
2019-04-21T06:55:10.244Z,95491.34
2019-04-21T06:57:38.952Z,95479.56
2019-04-21T07:00:14.979Z,95483.33
2019-04-21T07:05:13.622Z,95496.86
2019-04-21T07:07:52.091Z,95499.56
2019-04-21T07:10:14.319Z,95500.24
2019-04-21T07:12:43.009Z,95505.51
2019-04-21T07:15:13.359Z,95497.78
2019-04-21T07:17:46.941Z,95505.56
2019-04-21T07:20:18.603Z,95509.80
2019-04-21T07:22:50.956Z,95514.89
2019-04-21T07:25:18.946Z,95522.14
2019-04-21T07:27:47.423Z,95516.37
2019-04-21T07:30:23.127Z,95510.16
2019-04-21T07:32:56.267Z,95508.55
2019-04-21T07:35:22.177Z,95512.33
2019-04-21T07:37:53.668Z,95513.91
2019-04-21T07:40:13.491Z,95512.63
2019-04-21T07:42:48.056Z,95512.89
2019-04-21T07:45:16.592Z,95515.92
2019-04-21T07:47:55.104Z,95525.30
2019-04-21T07:50:54.435Z,95517.10
2019-04-21T07:53:27.837Z,95513.05
2019-04-21T07:55:35.813Z,95513.90
2019-04-21T07:58:26.575Z,95509.06
2019-04-21T08:01:00.313Z,95505.20
2019-04-21T08:03:28.594Z,95501.56
2019-04-21T08:05:59.060Z,95512.67
2019-04-21T08:08:26.522Z,95509.45
2019-04-21T08:10:56.993Z,95506.22
2019-04-21T08:15:59.544Z,95479.76
2019-04-21T08:18:33.700Z,95468.38
2019-04-21T08:20:59.666Z,95485.56
2019-04-21T08:23:31.494Z,95491.88
2019-04-21T08:26:04.743Z,95497.63
2019-04-21T08:28:43.735Z,95491.66
2019-04-21T08:31:10.318Z,95482.25
2019-04-21T08:33:38.669Z,95479.45
2019-04-21T08:36:25.472Z,95488.72
2019-04-21T08:38:45.808Z,95511.64
2019-04-21T08:41:11.058Z,95518.61
2019-04-21T08:43:42.853Z,95502.17
2019-04-21T08:46:13.735Z,95486.97
2019-04-21T08:48:43.882Z,95491.97
2019-04-21T08:53:47.588Z,95504.30
2019-04-21T08:56:14.985Z,95496.22
2019-04-21T08:59:09.528Z,95500.39
2019-04-21T09:01:36.891Z,95497.47
2019-04-21T09:04:11.689Z,95491.74
2019-04-21T09:06:57.210Z,95490.11
2019-04-21T09:09:14.276Z,95486.97
2019-04-21T09:11:37.313Z,95490.63
2019-04-21T09:14:07.767Z,95481.08
2019-04-21T09:16:35.552Z,95475.41
2019-04-21T09:19:04.390Z,95469.66
2019-04-21T09:21:43.751Z,95461.00
2019-04-21T09:24:11.647Z,95444.59
2019-04-21T09:26:42.897Z,95428.12
2019-04-21T09:29:04.349Z,95423.67
2019-04-21T09:31:30.952Z,95439.52
2019-04-21T09:33:59.249Z,95457.73
2019-04-21T09:36:35.209Z,95457.23
2019-04-21T09:39:06.618Z,95460.16
2019-04-21T09:41:28.407Z,95448.59
2019-04-21T09:43:59.714Z,95452.16
2019-04-21T09:46:29.901Z,95457.18
2019-04-21T09:49:02.594Z,95460.68
2019-04-21T09:51:30.568Z,95460.41
2019-04-21T09:54:05.826Z,95454.87
2019-04-21T09:56:39.506Z,95443.55
2019-04-21T09:59:09.194Z,95438.33
2019-04-21T10:01:45.091Z,95433.05
2019-04-21T10:04:05.226Z,95437.88
2019-04-21T10:06:33.109Z,95439.14
2019-04-21T10:09:04.711Z,95445.73
2019-04-21T10:11:33.285Z,95446.88
2019-04-21T10:14:03.210Z,95445.38
2019-04-21T10:16:40.664Z,95448.14
2019-04-21T10:19:11.182Z,95440.48
2019-04-21T10:21:40.392Z,95443.71
2019-04-21T10:24:13.043Z,95447.11
2019-04-21T10:26:43.098Z,95440.75
2019-04-21T10:29:19.744Z,95437.64
2019-04-21T10:31:43.114Z,95436.55
2019-04-21T10:34:13.416Z,95435.73
2019-04-21T10:36:44.855Z,95425.70
2019-04-21T10:39:13.811Z,95424.66
2019-04-21T10:41:43.508Z,95421.21
2019-04-21T10:44:13.499Z,95418.77
2019-04-21T10:46:45.307Z,95423.59
2019-04-21T10:49:13.134Z,95418.82
2019-04-21T10:51:43.282Z,95424.04
2019-04-21T10:54:13.604Z,95420.09
2019-04-21T10:56:44.479Z,95413.70
2019-04-21T10:59:14.290Z,95404.66
2019-04-21T11:01:43.335Z,95397.91
2019-04-21T11:04:20.309Z,95370.84
2019-04-21T11:06:44.589Z,95318.85
2019-04-21T11:09:14.083Z,95323.50
2019-04-21T11:11:45.977Z,95330.98
2019-04-21T11:14:13.726Z,95332.09
2019-04-21T11:16:43.313Z,95325.30
2019-04-21T11:19:13.741Z,95325.84
2019-04-21T11:21:42.935Z,95331.94
2019-04-21T11:24:12.382Z,95331.98
2019-04-21T11:26:42.225Z,95327.45
2019-04-21T11:29:12.864Z,95329.34
2019-04-21T11:31:43.124Z,95331.16
2019-04-21T11:34:13.419Z,95341.42
2019-04-21T11:36:43.804Z,95342.48
2019-04-21T11:39:28.741Z,95338.86
2019-04-21T11:41:45.745Z,95329.37
2019-04-21T11:44:14.618Z,95335.45
2019-04-21T11:46:44.519Z,95344.74
2019-04-21T11:49:13.557Z,95352.22
2019-04-21T11:51:42.839Z,95350.33
2019-04-21T11:54:12.899Z,95342.90
2019-04-21T11:56:43.153Z,95319.94
2019-04-21T11:59:12.321Z,95308.36
2019-04-21T12:01:41.504Z,95314.92
2019-04-21T12:04:11.742Z,95311.56
2019-04-21T12:06:44.456Z,95310.77
2019-04-21T12:09:12.469Z,95308.39
2019-04-21T12:11:41.361Z,95320.50
2019-04-21T12:14:12.086Z,95322.78
2019-04-21T12:16:41.303Z,95316.11
2019-04-21T12:19:10.902Z,95293.22
2019-04-21T12:21:53.514Z,95284.77
2019-04-21T12:24:11.151Z,95292.73
2019-04-21T12:26:40.235Z,95294.69
2019-04-21T12:29:10.109Z,95304.98
2019-04-21T12:31:57.237Z,95311.05
2019-04-21T12:34:26.265Z,95304.20
2019-04-21T12:36:56.942Z,95302.07
2019-04-21T12:39:27.088Z,95296.77
2019-04-21T12:41:56.380Z,95294.92
2019-04-21T12:44:25.600Z,95282.00
2019-04-21T12:46:54.516Z,95273.52
2019-04-21T12:49:23.404Z,95266.91
2019-04-21T12:51:53.455Z,95269.81
2019-04-21T12:54:23.748Z,95264.78
2019-04-21T12:56:53.784Z,95263.59
2019-04-21T12:59:24.490Z,95263.58
2019-04-21T13:01:54.823Z,95248.89
2019-04-21T13:04:26.014Z,95252.27
2019-04-21T13:06:55.268Z,95246.64
2019-04-21T13:09:27.429Z,95243.22
2019-04-21T13:11:55.172Z,95249.83
2019-04-21T13:14:26.289Z,95241.83
2019-04-21T13:16:55.204Z,95232.32
2019-04-21T13:19:25.262Z,95228.59
2019-04-21T13:21:54.145Z,95215.73
2019-04-21T13:24:24.132Z,95212.98
2019-04-21T13:26:58.125Z,95212.98
2019-04-21T13:29:23.982Z,95212.12
2019-04-21T13:31:54.241Z,95209.67
2019-04-21T13:34:24.124Z,95200.25
2019-04-21T13:36:53.961Z,95196.32
2019-04-21T13:39:50.268Z,95189.48
2019-04-21T13:42:08.733Z,95186.42
2019-04-21T13:44:28.802Z,95178.80
2019-04-21T13:46:58.761Z,95169.48
2019-04-21T13:49:27.716Z,95163.70
2019-04-21T13:51:56.607Z,95165.66
2019-04-21T13:54:27.421Z,95156.00
2019-04-21T13:56:56.619Z,95159.78
2019-04-21T13:59:26.447Z,95154.41
2019-04-21T14:01:55.714Z,95158.90
2019-04-21T14:04:27.309Z,95148.92
2019-04-21T14:06:56.477Z,95146.14
2019-04-21T14:09:35.790Z,95139.23
2019-04-21T14:11:57.052Z,95135.67
2019-04-21T14:14:26.281Z,95140.29
2019-04-21T14:16:56.153Z,95130.48
2019-04-21T14:19:25.570Z,95129.97
2019-04-21T14:21:55.218Z,95125.22
2019-04-21T14:24:24.650Z,95124.94
2019-04-21T14:26:54.323Z,95126.09
2019-04-21T14:29:23.810Z,95122.87
2019-04-21T14:31:52.895Z,95126.92
2019-04-21T14:34:22.010Z,95117.27
2019-04-21T14:36:50.930Z,95118.50
2019-04-21T14:39:20.835Z,95115.75
2019-04-21T14:41:50.524Z,95104.59
2019-04-21T14:44:20.737Z,95108.73
2019-04-21T14:46:51.436Z,95102.67
2019-04-21T14:49:28.993Z,95101.34
2019-04-21T14:52:05.491Z,95095.34
2019-04-21T14:54:36.453Z,95094.73
2019-04-21T14:57:05.462Z,95086.73
2019-04-21T14:59:35.191Z,95082.16
2019-04-21T15:02:05.625Z,95088.77
2019-04-21T15:04:35.607Z,95088.77
2019-04-21T15:07:05.604Z,95088.02
2019-04-21T15:09:37.166Z,95082.88
2019-04-21T15:12:05.723Z,95082.88
2019-04-21T15:14:35.994Z,95079.75
2019-04-21T15:17:07.104Z,95073.95
2019-04-21T15:19:35.928Z,95079.66
2019-04-21T15:22:06.223Z,95074.48
2019-04-21T15:24:36.254Z,95065.05
2019-04-21T15:27:05.316Z,95059.05
2019-04-21T15:29:35.008Z,95062.06
2019-04-21T15:32:04.379Z,95062.23
2019-04-21T15:34:34.006Z,95055.02
2019-04-21T15:37:04.096Z,95060.16
2019-04-21T15:39:34.064Z,95047.98
2019-04-21T15:42:03.016Z,95052.45
2019-04-21T15:44:32.930Z,95052.64
2019-04-21T15:47:02.095Z,95051.31
2019-04-21T15:49:40.498Z,95042.89
2019-04-21T15:52:04.413Z,95042.89
2019-04-21T15:54:34.393Z,95036.64
2019-04-21T15:57:04.973Z,95039.52
2019-04-21T15:59:36.749Z,95034.71
2019-04-21T16:02:24.485Z,95033.36
2019-04-21T16:04:54.765Z,95028.52
2019-04-21T16:07:24.521Z,95028.64
2019-04-21T16:09:54.331Z,95021.92
2019-04-21T16:12:23.299Z,95018.78
2019-04-21T16:14:52.552Z,95020.81
2019-04-21T16:17:21.491Z,95010.45
2019-04-21T16:19:50.383Z,95006.41
2019-04-21T16:22:19.275Z,94998.26
2019-04-21T16:24:48.165Z,94996.87
2019-04-21T16:27:17.438Z,94996.91
2019-04-21T16:29:47.843Z,94994.81
2019-04-21T16:32:19.353Z,94999.71
2019-04-21T16:34:54.210Z,94994.98
2019-04-21T16:37:19.376Z,94985.75
2019-04-21T16:39:49.531Z,94986.66
2019-04-21T16:42:18.792Z,94983.86
2019-04-21T16:44:48.913Z,94975.23
2019-04-21T16:47:19.551Z,94972.97
2019-04-21T16:49:49.872Z,94973.91
2019-04-21T16:52:20.513Z,94977.97
2019-04-21T16:54:58.301Z,94967.12
2019-04-21T16:57:35.667Z,94966.20
2019-04-21T17:00:08.734Z,94968.77
2019-04-21T17:02:38.631Z,94962.62
2019-04-21T17:05:12.074Z,94960.72
2019-04-21T17:07:43.016Z,94957.55
2019-04-21T17:10:12.854Z,94950.74
2019-04-21T17:12:43.330Z,94938.32
2019-04-21T17:15:28.269Z,94943.40
2019-04-21T17:18:05.638Z,94940.33
2019-04-21T17:20:28.670Z,94932.58
2019-04-21T17:22:45.777Z,94937.40
2019-04-21T17:25:16.171Z,94935.23
2019-04-21T17:27:47.037Z,94934.28
2019-04-21T17:30:16.643Z,94934.28
2019-04-21T17:32:49.739Z,94930.95
2019-04-21T17:35:16.689Z,94933.86
2019-04-21T17:37:48.070Z,94936.25
2019-04-21T17:40:19.926Z,94939.34
2019-04-21T17:42:53.715Z,94933.81
2019-04-21T17:45:19.655Z,94935.75
2019-04-21T17:47:54.216Z,94930.50
2019-04-21T17:50:23.398Z,94933.98
2019-04-21T17:53:05.026Z,94943.02
2019-04-21T17:55:40.647Z,94945.42
2019-04-21T17:58:27.197Z,94939.64
2019-04-21T18:01:10.817Z,94936.27
2019-04-21T18:03:46.203Z,94935.80
2019-04-21T18:05:59.524Z,94927.16
2019-04-21T18:08:38.210Z,94932.11
2019-04-21T18:10:56.932Z,94935.89
2019-04-21T18:13:22.696Z,94931.98
2019-04-21T18:16:01.526Z,94930.69
2019-04-21T18:18:20.943Z,94928.47
2019-04-21T18:21:04.896Z,94929.20
2019-04-21T18:23:50.550Z,94926.13
2019-04-21T18:26:27.159Z,94926.94
2019-04-21T18:28:44.364Z,94929.33
2019-04-21T18:31:16.415Z,94931.70
2019-04-21T18:33:47.868Z,94933.03
2019-04-21T18:36:32.328Z,94926.72
2019-04-21T18:39:14.008Z,94929.32
2019-04-21T18:41:36.644Z,94934.98
2019-04-21T18:44:36.415Z,94943.18
2019-04-21T18:47:05.429Z,94944.24
2019-04-21T18:49:19.423Z,94950.60
2019-04-21T18:51:59.672Z,94950.59
2019-04-21T18:54:41.758Z,94953.23
2019-04-21T18:57:05.417Z,94955.92
2019-04-21T18:59:29.830Z,94963.63
2019-04-21T19:02:04.275Z,94963.31
2019-04-21T19:04:30.060Z,94967.61
2019-04-21T19:07:15.565Z,94966.03
2019-04-21T19:12:24.026Z,94969.49
2019-04-21T19:14:46.125Z,94966.06
2019-04-21T19:17:49.531Z,94969.23
2019-04-21T19:19:54.560Z,94974.78
2019-04-21T19:22:20.130Z,94982.95
2019-04-21T19:24:52.230Z,94981.38
2019-04-21T19:27:36.635Z,94981.30
2019-04-21T19:32:27.226Z,94980.19
2019-04-21T19:34:41.401Z,94977.59
2019-04-21T19:37:16.403Z,94977.02
2019-04-21T19:39:56.128Z,94983.09
2019-04-21T19:42:25.643Z,94981.19
2019-04-21T19:45:03.315Z,94978.71
2019-04-21T19:47:35.437Z,94978.71
2019-04-21T19:50:06.059Z,94978.52
2019-04-21T19:52:30.978Z,94979.73
2019-04-21T19:54:50.520Z,94982.64
2019-04-21T19:57:18.767Z,94975.79
2019-04-21T19:59:53.090Z,94977.52
2019-04-21T20:02:18.671Z,94974.05
2019-04-21T20:04:55.593Z,94976.73
2019-04-21T20:07:32.887Z,94971.14
2019-04-21T20:10:17.034Z,94974.38
2019-04-21T20:12:41.179Z,94966.06
2019-04-21T20:15:20.506Z,94963.17
2019-04-21T20:17:36.434Z,94961.86
2019-04-21T20:19:52.038Z,94954.97
2019-04-21T20:22:26.166Z,94956.81
2019-04-21T20:25:00.089Z,94948.59
2019-04-21T20:27:36.019Z,94952.27
2019-04-21T20:30:16.180Z,94950.97
2019-04-21T20:32:47.019Z,94953.50
2019-04-21T20:35:17.061Z,94956.66
2019-04-21T20:37:41.904Z,94950.50
2019-04-21T20:40:02.237Z,94948.73
2019-04-21T20:42:42.524Z,94937.70
2019-04-21T20:45:28.836Z,94942.95
2019-04-21T20:47:37.611Z,94946.10
2019-04-21T20:50:12.298Z,94945.11
2019-04-21T20:52:48.005Z,94942.98
2019-04-21T20:55:15.519Z,94942.48
2019-04-21T20:57:49.319Z,94931.52
2019-04-21T21:00:21.751Z,94925.87
2019-04-21T21:02:58.170Z,94922.83
2019-04-21T21:05:19.780Z,94926.02
2019-04-21T21:08:01.216Z,94920.49
2019-04-21T21:10:29.247Z,94914.71
2019-04-21T21:13:06.177Z,94911.43
2019-04-21T21:15:51.409Z,94910.14
2019-04-21T21:18:26.829Z,94904.70
2019-04-21T21:20:48.982Z,94912.06
2019-04-21T21:23:14.493Z,94917.32
2019-04-21T21:25:50.969Z,94905.89
2019-04-21T21:28:17.052Z,94905.73
2019-04-21T21:30:46.556Z,94900.93
2019-04-21T21:33:25.645Z,94897.23
2019-04-21T21:35:49.427Z,94893.65
2019-04-21T21:38:28.540Z,94887.55
2019-04-21T21:40:49.643Z,94888.72
2019-04-21T21:43:16.638Z,94894.63
2019-04-21T21:45:45.751Z,94885.29
2019-04-21T21:48:26.406Z,94886.75
2019-04-21T21:50:50.957Z,94892.33
2019-04-21T21:53:16.368Z,94879.73
2019-04-21T21:55:44.723Z,94876.75
2019-04-21T21:58:19.422Z,94875.55
2019-04-21T22:00:52.891Z,94869.82
2019-04-21T22:03:27.180Z,94875.83
2019-04-21T22:05:57.228Z,94872.97
2019-04-21T22:08:20.564Z,94873.44
2019-04-21T22:10:49.635Z,94884.19
2019-04-21T22:13:21.901Z,94870.55
2019-04-21T22:15:56.526Z,94877.11
2019-04-21T22:18:39.057Z,94870.95
2019-04-21T22:21:04.939Z,94863.41
2019-04-21T22:23:29.505Z,94864.20
2019-04-21T22:25:51.632Z,94866.44
2019-04-21T22:28:22.025Z,94859.77
2019-04-21T22:30:53.343Z,94870.17
2019-04-21T22:33:23.312Z,94874.41
2019-04-21T22:36:00.394Z,94868.48
2019-04-21T22:38:40.201Z,94862.15
2019-04-21T22:41:06.068Z,94866.23
2019-04-21T22:43:29.145Z,94858.88
2019-04-21T22:45:55.919Z,94860.14
2019-04-21T22:48:28.331Z,94864.41
2019-04-21T22:50:56.216Z,94863.27
2019-04-21T22:53:29.298Z,94861.69
2019-04-21T22:56:01.145Z,94861.50
2019-04-21T22:58:31.709Z,94857.98
2019-04-21T23:01:01.573Z,94852.16
2019-04-21T23:03:28.859Z,94859.88
2019-04-21T23:06:02.883Z,94859.14
2019-04-21T23:08:33.186Z,94854.81
2019-04-21T23:11:03.494Z,94856.98
2019-04-21T23:13:30.920Z,94859.70
2019-04-21T23:16:02.443Z,94845.44
2019-04-21T23:18:48.040Z,94853.84
2019-04-21T23:21:17.438Z,94847.52
2019-04-21T23:23:51.819Z,94838.50
2019-04-21T23:26:23.680Z,94843.82
2019-04-21T23:28:52.458Z,94840.96
2019-04-21T23:31:27.549Z,94839.84
2019-04-21T23:33:34.822Z,94844.36
2019-04-21T23:36:12.524Z,94832.58
2019-04-21T23:38:41.750Z,94833.48
2019-04-21T23:41:07.814Z,94836.27
2019-04-21T23:43:37.195Z,94839.65
2019-04-21T23:46:11.993Z,94832.38
2019-04-21T23:48:56.208Z,94832.38
2019-04-21T23:51:21.842Z,94829.88
2019-04-21T23:53:39.423Z,94825.06
2019-04-21T23:56:14.728Z,94832.01
2019-04-21T23:58:40.362Z,94826.66
